createdAt,value
2022-11-29T00:01:01.556Z,28.17
2022-11-29T00:03:28.994Z,34.63
2022-11-29T00:05:56.155Z,28.87
2022-11-29T00:08:23.996Z,30.75
2022-11-29T00:10:50.937Z,33.45
2022-11-29T00:13:18.388Z,28.48
2022-11-29T00:15:45.113Z,31.98
2022-11-29T00:18:12.074Z,31.20
2022-11-29T00:20:39.656Z,30.00
2022-11-29T00:23:06.499Z,28.95
2022-11-29T00:25:33.398Z,30.58
2022-11-29T00:28:00.209Z,31.05
2022-11-29T00:30:28.137Z,28.57
2022-11-29T00:32:55.090Z,30.40
2022-11-29T00:35:21.781Z,29.95
2022-11-29T00:37:48.609Z,32.10
2022-11-29T00:40:15.348Z,29.88
2022-11-29T00:42:42.129Z,31.00
2022-11-29T00:45:09.361Z,28.83
2022-11-29T00:47:36.189Z,30.35
2022-11-29T00:50:03.705Z,29.35
2022-11-29T00:52:30.531Z,31.00
2022-11-29T00:54:57.303Z,31.70
2022-11-29T00:57:24.137Z,29.60
2022-11-29T00:59:50.873Z,32.38
2022-11-29T01:02:17.642Z,28.30
2022-11-29T01:04:44.800Z,30.85
2022-11-29T01:07:11.853Z,28.03
2022-11-29T01:09:38.622Z,30.02
2022-11-29T01:12:05.495Z,29.05
2022-11-29T01:14:32.517Z,31.05
2022-11-29T01:16:59.366Z,31.10
2022-11-29T01:19:26.168Z,26.77
2022-11-29T01:21:52.951Z,30.65
2022-11-29T01:24:19.782Z,28.63
2022-11-29T01:26:46.591Z,31.42
2022-11-29T01:29:13.827Z,30.05
2022-11-29T01:31:40.602Z,30.33
2022-11-29T01:34:07.740Z,27.38
2022-11-29T01:36:35.373Z,26.00
2022-11-29T01:39:05.241Z,28.70
2022-11-29T01:41:35.003Z,27.13
2022-11-29T01:44:26.882Z,27.17
2022-11-29T01:46:54.844Z,29.50
2022-11-29T01:49:28.181Z,27.63
2022-11-29T01:52:18.797Z,28.33
2022-11-29T01:54:50.304Z,27.27
2022-11-29T01:57:18.600Z,26.00
2022-11-29T01:59:52.556Z,31.33
2022-11-29T02:02:29.424Z,25.80
2022-11-29T02:04:59.035Z,28.02
2022-11-29T02:07:25.955Z,28.08
2022-11-29T02:09:53.018Z,25.83
2022-11-29T02:12:38.164Z,27.33
2022-11-29T02:15:36.067Z,28.48
2022-11-29T02:18:08.290Z,28.00
2022-11-29T02:20:59.560Z,25.08
2022-11-29T02:24:02.114Z,25.37
2022-11-29T02:26:40.677Z,27.52
2022-11-29T02:29:30.049Z,23.88
2022-11-29T02:32:34.359Z,23.05
2022-11-29T02:35:16.040Z,23.42
2022-11-29T02:38:11.270Z,25.97
2022-11-29T02:41:04.509Z,26.10
2022-11-29T02:43:58.940Z,26.85
2022-11-29T02:46:55.319Z,28.52
2022-11-29T02:49:45.550Z,23.50
2022-11-29T02:52:25.220Z,24.37
2022-11-29T02:55:15.381Z,23.98
2022-11-29T02:58:02.406Z,25.30
2022-11-29T03:00:35.992Z,25.25
2022-11-29T03:03:08.696Z,25.10
2022-11-29T03:05:53.541Z,26.57
2022-11-29T03:08:35.740Z,25.05
2022-11-29T03:11:26.664Z,26.60
2022-11-29T03:14:25.805Z,27.90
2022-11-29T03:17:20.240Z,28.33
2022-11-29T03:20:01.108Z,25.90
2022-11-29T03:22:30.662Z,29.60
2022-11-29T03:25:00.359Z,27.33
2022-11-29T03:27:31.304Z,25.92
2022-11-29T03:30:02.436Z,25.63
2022-11-29T03:33:02.795Z,28.27
2022-11-29T03:35:58.452Z,28.73
2022-11-29T03:38:45.000Z,26.65
2022-11-29T03:41:28.798Z,25.13
2022-11-29T03:44:03.450Z,26.60
2022-11-29T03:46:46.589Z,27.93
2022-11-29T03:49:38.348Z,27.05
2022-11-29T03:52:32.133Z,28.63
2022-11-29T03:55:32.337Z,25.92
2022-11-29T03:58:20.568Z,27.17
2022-11-29T04:00:50.290Z,27.97
2022-11-29T04:03:25.951Z,27.50
2022-11-29T04:06:13.843Z,25.40
2022-11-29T04:09:27.311Z,27.73
2022-11-29T04:12:12.071Z,26.98
2022-11-29T04:14:53.804Z,25.77
2022-11-29T04:17:49.062Z,24.80
2022-11-29T04:20:55.665Z,25.08
2022-11-29T04:23:47.195Z,27.75
2022-11-29T04:26:22.623Z,27.42
2022-11-29T04:28:55.132Z,30.07
2022-11-29T04:31:52.758Z,27.90
2022-11-29T04:34:37.648Z,27.05
2022-11-29T04:37:31.887Z,26.38
2022-11-29T04:40:20.387Z,26.88
2022-11-29T04:43:24.566Z,26.83
2022-11-29T04:46:03.495Z,26.80
2022-11-29T04:49:04.113Z,27.45
2022-11-29T04:51:30.839Z,26.23
2022-11-29T04:53:57.551Z,28.13
2022-11-29T04:56:32.987Z,24.87
2022-11-29T04:59:19.547Z,28.08
2022-11-29T05:02:05.789Z,26.60
2022-11-29T05:05:19.929Z,29.42
2022-11-29T05:07:59.724Z,28.30
2022-11-29T05:10:33.883Z,24.60
2022-11-29T05:13:32.743Z,26.58
2022-11-29T05:16:14.755Z,26.58
2022-11-29T05:18:56.787Z,26.75
2022-11-29T05:21:47.903Z,27.00
2022-11-29T05:24:20.624Z,29.20
2022-11-29T05:27:21.476Z,27.20
2022-11-29T05:29:56.862Z,32.78
2022-11-29T05:32:57.984Z,29.10
2022-11-29T05:35:51.186Z,28.02
2022-11-29T05:38:17.977Z,30.87
2022-11-29T05:41:00.225Z,28.48
2022-11-29T05:44:04.168Z,31.35
2022-11-29T05:46:43.089Z,30.00
2022-11-29T05:49:38.533Z,29.13
2022-11-29T05:52:24.919Z,30.87
2022-11-29T05:55:17.368Z,32.83
2022-11-29T05:57:55.476Z,31.35
2022-11-29T06:00:22.828Z,30.08
2022-11-29T06:03:03.305Z,31.98
2022-11-29T06:05:59.280Z,33.27
2022-11-29T06:08:40.153Z,34.67
2022-11-29T06:11:17.538Z,32.45
2022-11-29T06:14:02.400Z,29.83
2022-11-29T06:16:50.759Z,30.35
2022-11-29T06:19:48.512Z,32.63
2022-11-29T06:22:42.573Z,33.90
2022-11-29T06:25:12.292Z,31.08
2022-11-29T06:28:13.875Z,32.70
2022-11-29T06:31:04.527Z,33.97
2022-11-29T06:34:02.877Z,33.17
2022-11-29T06:36:40.123Z,30.77
2022-11-29T06:39:09.193Z,33.50
2022-11-29T06:41:36.590Z,33.40
2022-11-29T06:44:04.202Z,31.80
2022-11-29T06:46:44.165Z,32.97
2022-11-29T06:49:32.457Z,33.28
2022-11-29T06:52:39.475Z,36.30
2022-11-29T06:55:24.037Z,36.55
2022-11-29T06:58:28.347Z,34.08
2022-11-29T07:01:11.136Z,33.20
2022-11-29T07:04:20.644Z,36.70
2022-11-29T07:06:47.681Z,38.30
2022-11-29T07:09:17.758Z,34.88
2022-11-29T07:11:46.268Z,34.80
2022-11-29T07:14:13.611Z,34.53
2022-11-29T07:16:46.275Z,34.83
2022-11-29T07:19:24.971Z,35.30
2022-11-29T07:22:14.990Z,36.30
2022-11-29T07:24:50.783Z,36.95
2022-11-29T07:27:35.895Z,34.47
2022-11-29T07:30:11.772Z,31.83
2022-11-29T07:33:14.834Z,35.92
2022-11-29T07:35:53.880Z,30.55
2022-11-29T07:39:08.434Z,38.13
2022-11-29T07:42:00.587Z,34.27
2022-11-29T07:44:44.741Z,31.45
2022-11-29T07:47:12.177Z,31.38
2022-11-29T07:49:38.976Z,30.80
2022-11-29T07:52:05.784Z,32.28
2022-11-29T07:54:32.664Z,33.27
2022-11-29T07:56:59.438Z,33.45
2022-11-29T07:59:26.174Z,30.58
2022-11-29T08:01:53.051Z,32.40
2022-11-29T08:04:19.896Z,30.63
2022-11-29T08:06:46.658Z,29.10
2022-11-29T08:09:13.478Z,33.15
2022-11-29T08:11:40.402Z,29.50
2022-11-29T08:14:07.215Z,30.70
2022-11-29T08:16:34.480Z,33.08
2022-11-29T08:19:01.434Z,30.60
2022-11-29T08:21:28.193Z,29.63
2022-11-29T08:23:55.003Z,32.67
2022-11-29T08:26:24.451Z,29.38
2022-11-29T08:28:56.253Z,30.88
2022-11-29T08:31:23.234Z,30.07
2022-11-29T08:33:50.031Z,29.35
2022-11-29T08:36:19.626Z,29.05
2022-11-29T08:38:47.637Z,30.25
2022-11-29T08:41:16.184Z,29.58
2022-11-29T08:43:43.856Z,30.60
2022-11-29T08:46:16.690Z,29.88
2022-11-29T08:48:45.318Z,30.65
2022-11-29T08:51:12.141Z,26.50
2022-11-29T08:53:38.870Z,28.38
2022-11-29T08:56:31.768Z,29.60
2022-11-29T08:58:52.588Z,27.80
2022-11-29T09:01:20.068Z,26.75
2022-11-29T09:03:47.170Z,30.42
2022-11-29T09:06:15.531Z,27.55
2022-11-29T09:08:43.240Z,29.77
2022-11-29T09:11:21.074Z,30.85
2022-11-29T09:13:50.533Z,26.73
2022-11-29T09:16:20.915Z,29.10
2022-11-29T09:18:51.680Z,26.75
2022-11-29T09:21:19.603Z,28.50
2022-11-29T09:23:46.757Z,29.92
2022-11-29T09:26:18.698Z,29.00
2022-11-29T09:28:48.876Z,28.08
2022-11-29T09:31:16.685Z,24.73
2022-11-29T09:33:43.522Z,27.43
2022-11-29T09:36:11.517Z,28.05
2022-11-29T09:38:39.026Z,25.63
2022-11-29T09:41:21.097Z,24.33
2022-11-29T09:44:17.808Z,26.38
2022-11-29T09:46:58.819Z,27.77
2022-11-29T09:50:03.317Z,25.67
2022-11-29T09:53:17.722Z,23.95
2022-11-29T09:56:09.147Z,24.95
2022-11-29T09:58:57.594Z,27.25
2022-11-29T10:01:30.458Z,22.93
2022-11-29T10:04:02.599Z,22.60
2022-11-29T10:06:35.383Z,23.52
2022-11-29T10:09:14.591Z,23.65
2022-11-29T10:11:53.440Z,23.58
2022-11-29T10:14:27.167Z,21.27
2022-11-29T10:17:18.246Z,22.25
2022-11-29T10:19:50.062Z,22.67
2022-11-29T10:22:31.295Z,21.60
2022-11-29T10:25:01.579Z,24.92
2022-11-29T10:27:29.628Z,22.17
2022-11-29T10:29:58.883Z,19.35
2022-11-29T10:32:29.159Z,24.60
2022-11-29T10:34:55.945Z,22.50
2022-11-29T10:37:24.329Z,23.15
2022-11-29T10:39:59.310Z,23.13
2022-11-29T10:42:29.018Z,21.60
2022-11-29T10:44:56.389Z,22.42
2022-11-29T10:47:23.215Z,23.48
2022-11-29T10:49:50.080Z,22.17
2022-11-29T10:52:20.489Z,23.07
2022-11-29T10:54:49.795Z,24.30
2022-11-29T10:57:22.382Z,21.52
2022-11-29T11:00:02.924Z,22.95
2022-11-29T11:02:30.781Z,22.25
2022-11-29T11:04:58.944Z,24.23
2022-11-29T11:07:36.346Z,21.95
2022-11-29T11:10:06.307Z,20.63
2022-11-29T11:12:34.761Z,20.80
2022-11-29T11:15:24.960Z,22.00
2022-11-29T11:18:07.469Z,22.73
2022-11-29T11:20:41.756Z,19.85
2022-11-29T11:23:30.843Z,21.42
2022-11-29T11:26:09.175Z,20.50
2022-11-29T11:28:42.151Z,21.05
2022-11-29T11:31:11.537Z,19.33
2022-11-29T11:33:43.153Z,21.30
2022-11-29T11:36:13.130Z,19.23
2022-11-29T11:38:54.425Z,18.67
2022-11-29T11:41:31.876Z,19.70
2022-11-29T11:44:02.514Z,21.07
2022-11-29T11:46:50.105Z,20.60
2022-11-29T11:49:31.303Z,20.83
2022-11-29T11:52:00.636Z,22.73
2022-11-29T11:54:29.375Z,21.23
2022-11-29T11:56:56.576Z,23.93
2022-11-29T11:59:26.225Z,22.05
2022-11-29T12:01:53.369Z,21.58
2022-11-29T12:04:35.715Z,21.73
2022-11-29T12:07:09.288Z,19.55
2022-11-29T12:09:42.378Z,18.83
2022-11-29T12:12:26.083Z,19.80
2022-11-29T12:14:56.579Z,18.75
2022-11-29T12:17:38.320Z,20.15
2022-11-29T12:20:44.715Z,22.05
2022-11-29T12:23:11.454Z,20.00
2022-11-29T12:25:51.942Z,19.45
2022-11-29T12:28:21.095Z,18.60
2022-11-29T12:31:11.383Z,17.30
2022-11-29T12:34:06.005Z,18.88
2022-11-29T12:37:06.775Z,18.23
2022-11-29T12:39:42.306Z,18.10
2022-11-29T12:42:27.735Z,18.77
2022-11-29T12:45:00.618Z,17.83
2022-11-29T12:47:47.483Z,19.95
2022-11-29T12:50:23.235Z,18.60
2022-11-29T12:53:24.022Z,18.42
2022-11-29T12:56:25.594Z,19.70
2022-11-29T12:59:04.265Z,16.38
2022-11-29T13:01:30.991Z,15.88
2022-11-29T13:04:11.741Z,15.43
2022-11-29T13:07:05.611Z,14.88
2022-11-29T13:09:44.864Z,16.17
2022-11-29T13:12:17.364Z,14.63
2022-11-29T13:14:50.289Z,14.90
2022-11-29T13:18:10.129Z,13.17
2022-11-29T13:20:45.592Z,12.27
2022-11-29T13:23:15.171Z,14.10
2022-11-29T13:25:45.520Z,13.73
2022-11-29T13:28:25.643Z,16.33
2022-11-29T13:30:55.256Z,16.13
2022-11-29T13:33:30.916Z,15.20
2022-11-29T13:36:34.194Z,13.50
2022-11-29T13:39:34.724Z,14.63
2022-11-29T13:42:24.783Z,15.77
2022-11-29T13:45:04.438Z,14.50
2022-11-29T13:47:31.428Z,13.45
2022-11-29T13:50:00.400Z,15.77
2022-11-29T13:52:47.305Z,16.00
2022-11-29T13:55:13.982Z,13.93
2022-11-29T13:58:28.474Z,15.53
2022-11-29T14:01:01.560Z,16.23
2022-11-29T14:03:36.013Z,17.60
2022-11-29T14:06:10.773Z,15.23
2022-11-29T14:09:17.765Z,16.73
2022-11-29T14:11:42.410Z,16.90
2022-11-29T14:14:17.173Z,15.50
2022-11-29T14:16:44.222Z,16.38
2022-11-29T14:19:10.943Z,18.70
2022-11-29T14:21:56.208Z,13.57
2022-11-29T14:24:54.965Z,15.83
2022-11-29T14:27:21.701Z,15.52
2022-11-29T14:29:48.418Z,16.00
2022-11-29T14:32:27.147Z,14.32
2022-11-29T14:35:02.920Z,14.35
2022-11-29T14:37:37.324Z,16.80
2022-11-29T14:40:18.117Z,14.45
2022-11-29T14:42:48.517Z,17.45
2022-11-29T14:45:24.683Z,15.00
2022-11-29T14:47:53.339Z,18.42
2022-11-29T14:50:34.190Z,17.17
2022-11-29T14:53:02.151Z,16.73
2022-11-29T14:55:32.892Z,15.77
2022-11-29T14:58:02.391Z,15.48
2022-11-29T15:00:42.840Z,16.13
2022-11-29T15:03:18.323Z,15.87
2022-11-29T15:06:07.018Z,17.38
2022-11-29T15:08:52.830Z,18.23
2022-11-29T15:11:35.581Z,18.83
2022-11-29T15:14:19.406Z,20.52
2022-11-29T15:17:04.056Z,21.50
2022-11-29T15:20:05.738Z,21.40
2022-11-29T15:22:51.798Z,25.05
2022-11-29T15:25:22.988Z,23.75
2022-11-29T15:27:54.791Z,21.45
2022-11-29T15:30:35.559Z,25.43
2022-11-29T15:33:06.367Z,27.60
2022-11-29T15:35:35.186Z,23.42
2022-11-29T15:38:02.479Z,25.55
2022-11-29T15:40:31.626Z,25.83
2022-11-29T15:43:21.883Z,23.47
2022-11-29T15:45:53.775Z,25.88
2022-11-29T15:48:26.413Z,26.40
2022-11-29T15:51:17.584Z,25.67
2022-11-29T15:54:00.405Z,27.20
2022-11-29T15:56:50.855Z,26.07
2022-11-29T15:59:39.212Z,24.77
2022-11-29T16:02:28.036Z,25.02
2022-11-29T16:05:03.104Z,25.00
2022-11-29T16:07:31.170Z,26.30
2022-11-29T16:10:03.818Z,23.03
2022-11-29T16:12:53.358Z,26.08
2022-11-29T16:15:33.153Z,26.10
2022-11-29T16:18:12.637Z,24.75
2022-11-29T16:20:41.167Z,23.25
2022-11-29T16:23:08.245Z,22.93
2022-11-29T16:25:53.829Z,22.70
2022-11-29T16:28:21.288Z,23.55
2022-11-29T16:30:48.809Z,24.42
2022-11-29T16:33:23.661Z,30.75
2022-11-29T16:35:51.598Z,25.37
2022-11-29T16:38:21.808Z,25.95
2022-11-29T16:41:20.899Z,22.88
2022-11-29T16:43:52.164Z,25.45
2022-11-29T16:46:21.919Z,23.00
2022-11-29T16:48:57.016Z,26.03
2022-11-29T16:51:29.553Z,25.52
2022-11-29T16:54:22.946Z,25.23
2022-11-29T16:56:55.574Z,23.70
2022-11-29T16:59:28.081Z,26.00
2022-11-29T17:01:57.153Z,26.90
2022-11-29T17:04:25.377Z,25.67
2022-11-29T17:06:54.349Z,24.65
2022-11-29T17:09:27.866Z,28.17
2022-11-29T17:11:56.531Z,23.88
2022-11-29T17:14:23.492Z,27.37
2022-11-29T17:16:50.909Z,28.90
2022-11-29T17:19:22.195Z,25.98
2022-11-29T17:21:50.419Z,24.63
2022-11-29T17:24:20.202Z,27.60
2022-11-29T17:26:47.429Z,26.47
2022-11-29T17:29:16.580Z,28.15
2022-11-29T17:31:45.186Z,27.90
2022-11-29T17:34:13.571Z,28.67
2022-11-29T17:36:40.354Z,30.88
2022-11-29T17:39:08.047Z,29.30
2022-11-29T17:41:36.107Z,28.67
2022-11-29T17:44:04.622Z,27.35
2022-11-29T17:46:34.848Z,30.00
2022-11-29T17:49:04.783Z,29.10
2022-11-29T17:54:21.528Z,30.27
2022-11-29T17:56:48.758Z,29.55
2022-11-29T17:59:16.515Z,32.88
2022-11-29T18:01:43.866Z,29.02
2022-11-29T18:04:12.159Z,30.63
2022-11-29T18:06:42.388Z,32.55
2022-11-29T18:09:12.371Z,28.50
2022-11-29T18:11:47.723Z,30.88
2022-11-29T18:14:25.928Z,27.95
2022-11-29T18:16:53.361Z,29.00
2022-11-29T18:19:22.698Z,26.95
2022-11-29T18:21:51.654Z,26.27
2022-11-29T18:24:20.242Z,27.58
2022-11-29T18:26:47.932Z,30.48
2022-11-29T18:29:15.660Z,28.00
2022-11-29T18:31:45.584Z,29.23
2022-11-29T18:34:14.627Z,28.42
2022-11-29T18:36:45.252Z,28.52
2022-11-29T18:39:18.371Z,29.42
2022-11-29T18:41:51.286Z,29.10
2022-11-29T18:44:20.866Z,26.20
2022-11-29T18:46:48.621Z,30.95
2022-11-29T18:49:18.274Z,29.65
2022-11-29T18:51:47.246Z,30.23
2022-11-29T18:54:16.487Z,33.33
2022-11-29T18:56:45.777Z,30.88
2022-11-29T18:59:15.950Z,30.63
2022-11-29T19:01:45.491Z,35.25
2022-11-29T19:04:17.303Z,31.02
2022-11-29T19:06:46.619Z,31.97
2022-11-29T19:09:17.912Z,33.10
2022-11-29T19:11:45.771Z,32.95
2022-11-29T19:14:13.718Z,29.30
2022-11-29T19:16:47.382Z,30.20
2022-11-29T19:19:16.570Z,30.10
2022-11-29T19:21:45.378Z,28.75
2022-11-29T19:24:15.288Z,31.50
2022-11-29T19:26:46.194Z,30.77
2022-11-29T19:29:14.975Z,31.73
2022-11-29T19:31:47.181Z,28.27
2022-11-29T19:34:15.370Z,29.73
2022-11-29T19:36:44.557Z,31.65
2022-11-29T19:39:17.311Z,28.38
2022-11-29T19:41:47.820Z,31.15
2022-11-29T19:44:15.985Z,28.27
2022-11-29T19:46:46.324Z,30.73
2022-11-29T19:49:14.577Z,28.45
2022-11-29T19:51:45.299Z,31.58
2022-11-29T19:54:14.468Z,33.00
2022-11-29T19:56:42.721Z,30.90
2022-11-29T19:59:16.750Z,31.05
2022-11-29T20:01:45.512Z,34.38
2022-11-29T20:04:14.331Z,33.97
2022-11-29T20:06:42.629Z,32.63
2022-11-29T20:09:13.914Z,32.77
2022-11-29T20:11:43.339Z,33.40
2022-11-29T20:14:14.022Z,32.05
2022-11-29T20:16:42.267Z,31.05
2022-11-29T20:19:13.949Z,32.78
2022-11-29T20:21:50.582Z,33.83
2022-11-29T20:24:19.277Z,38.72
2022-11-29T20:26:49.965Z,36.05
2022-11-29T20:29:21.820Z,37.08
2022-11-29T20:31:51.345Z,36.78
2022-11-29T20:34:21.613Z,36.03
2022-11-29T20:37:15.725Z,34.10
2022-11-29T20:39:55.883Z,36.70
2022-11-29T20:42:48.874Z,35.00
2022-11-29T20:45:18.272Z,35.38
2022-11-29T20:47:57.209Z,36.93
2022-11-29T20:50:31.119Z,35.42
2022-11-29T20:53:08.584Z,33.40
2022-11-29T20:55:36.463Z,32.78
2022-11-29T20:58:10.320Z,38.15
2022-11-29T21:00:39.007Z,36.17
2022-11-29T21:03:06.569Z,33.22
2022-11-29T21:05:34.366Z,38.40
2022-11-29T21:08:07.073Z,34.55
2022-11-29T21:10:36.008Z,34.05
2022-11-29T21:13:04.719Z,36.33
2022-11-29T21:15:32.550Z,34.33
2022-11-29T21:18:01.011Z,35.22
2022-11-29T21:20:28.709Z,34.83
2022-11-29T21:23:34.804Z,35.88
2022-11-29T21:26:07.646Z,40.57
2022-11-29T21:28:38.232Z,37.35
2022-11-29T21:31:05.989Z,36.10
2022-11-29T21:33:33.424Z,37.22
2022-11-29T21:36:00.428Z,33.40
2022-11-29T21:38:27.696Z,34.73
2022-11-29T21:40:54.456Z,34.47
2022-11-29T21:43:28.735Z,33.97
2022-11-29T21:46:08.617Z,39.35
2022-11-29T21:48:35.464Z,35.45
2022-11-29T21:51:06.761Z,35.73
2022-11-29T21:53:35.710Z,36.55
2022-11-29T21:56:05.701Z,36.20
2022-11-29T21:58:34.676Z,37.97
2022-11-29T22:01:16.705Z,36.83
2022-11-29T22:03:44.438Z,37.00
2022-11-29T22:06:13.459Z,37.67
2022-11-29T22:08:41.398Z,40.33
2022-11-29T22:11:11.879Z,38.65
2022-11-29T22:13:40.339Z,38.38
2022-11-29T22:16:09.595Z,38.20
2022-11-29T22:18:37.852Z,37.55
2022-11-29T22:21:06.790Z,40.08
2022-11-29T22:23:34.245Z,37.47
2022-11-29T22:26:05.397Z,41.20
2022-11-29T22:28:32.534Z,39.47
2022-11-29T22:31:05.385Z,36.75
2022-11-29T22:33:33.096Z,39.85
2022-11-29T22:36:05.092Z,38.15
2022-11-29T22:38:32.093Z,40.08
2022-11-29T22:41:05.085Z,39.43
2022-11-29T22:43:33.588Z,40.00
2022-11-29T22:46:08.138Z,41.60
2022-11-29T22:48:39.096Z,37.00
2022-11-29T22:51:12.077Z,39.53
2022-11-29T22:53:40.951Z,40.33
2022-11-29T22:56:10.539Z,42.03
2022-11-29T22:58:37.429Z,41.45
2022-11-29T23:01:19.098Z,38.75
2022-11-29T23:03:48.599Z,40.33
2022-11-29T23:06:18.545Z,39.43
2022-11-29T23:08:47.481Z,39.72
2022-11-29T23:11:17.099Z,40.42
2022-11-29T23:13:44.739Z,39.13
2022-11-29T23:16:14.685Z,38.88
2022-11-29T23:18:41.770Z,38.13
2022-11-29T23:21:11.585Z,40.78
2022-11-29T23:23:38.613Z,37.65
2022-11-29T23:26:07.154Z,37.65
2022-11-29T23:28:35.855Z,39.25
2022-11-29T23:31:02.757Z,41.33
2022-11-29T23:33:29.554Z,43.30
2022-11-29T23:36:02.094Z,38.50
2022-11-29T23:38:28.910Z,40.38
2022-11-29T23:40:55.826Z,40.05
2022-11-29T23:43:22.824Z,40.93
2022-11-29T23:45:50.466Z,41.47
2022-11-29T23:48:17.353Z,42.05
2022-11-29T23:50:44.112Z,42.35
2022-11-29T23:53:15.568Z,38.03
2022-11-29T23:55:42.680Z,38.87
2022-11-29T23:58:10.740Z,41.05
